createdAt,value
2019-05-21T00:05:01.350Z,22.27
2019-05-21T00:10:09.027Z,21.41
2019-05-21T00:15:16.541Z,22.62
2019-05-21T00:20:24.095Z,20.85
2019-05-21T00:25:31.601Z,17.35
2019-05-21T00:30:39.073Z,15.97
2019-05-21T00:35:46.524Z,14.85
2019-05-21T00:40:54.057Z,13.97
2019-05-21T00:46:01.633Z,15.34
2019-05-21T00:51:09.046Z,16.56
2019-05-21T00:56:16.554Z,15.69
2019-05-21T01:01:24.199Z,15.60
2019-05-21T01:06:31.918Z,15.36
2019-05-21T01:11:39.675Z,16.20
2019-05-21T01:16:47.403Z,14.66
2019-05-21T01:21:54.907Z,10.40
2019-05-21T01:27:02.427Z,9.23
2019-05-21T01:32:11.717Z,7.14
2019-05-21T01:37:19.584Z,6.78
2019-05-21T01:42:27.144Z,7.50
2019-05-21T01:47:34.756Z,6.75
2019-05-21T01:52:42.277Z,6.47
2019-05-21T01:57:49.881Z,5.74
2019-05-21T02:02:57.610Z,5.82
2019-05-21T02:08:05.337Z,6.40
2019-05-21T02:13:13.080Z,6.31
2019-05-21T02:18:20.490Z,6.70
2019-05-21T02:23:27.984Z,7.12
2019-05-21T02:28:35.564Z,6.73
2019-05-21T02:33:43.180Z,6.63
2019-05-21T02:38:50.724Z,6.56
2019-05-21T02:43:58.233Z,6.59
2019-05-21T02:49:05.835Z,6.20
2019-05-21T02:54:13.510Z,5.94
2019-05-21T02:59:20.624Z,6.06
2019-05-21T03:04:28.115Z,5.96
2019-05-21T03:09:35.321Z,6.11
2019-05-21T03:14:42.521Z,5.93
2019-05-21T03:19:49.640Z,6.04
2019-05-21T03:25:00.862Z,5.57
2019-05-21T03:30:04.087Z,6.17
2019-05-21T03:35:11.732Z,6.37
2019-05-21T03:40:19.268Z,7.11
2019-05-21T03:45:26.795Z,6.84
2019-05-21T03:50:34.448Z,6.51
2019-05-21T03:55:42.117Z,6.39
2019-05-21T04:00:49.773Z,7.70
2019-05-21T04:05:57.203Z,8.76
2019-05-21T04:11:04.878Z,9.29
2019-05-21T04:16:12.431Z,9.51
2019-05-21T04:21:19.995Z,10.66
2019-05-21T04:26:27.398Z,10.78
2019-05-21T04:31:35.077Z,10.10
2019-05-21T04:36:42.683Z,10.47
2019-05-21T04:41:50.482Z,11.74
2019-05-21T04:46:57.916Z,12.09
2019-05-21T04:52:05.539Z,11.72
2019-05-21T04:57:13.173Z,12.42
2019-05-21T05:02:20.578Z,12.25
2019-05-21T05:07:28.831Z,13.84
2019-05-21T05:12:35.573Z,15.23
2019-05-21T05:17:43.241Z,17.13
2019-05-21T05:22:50.613Z,16.86
2019-05-21T05:27:58.388Z,16.47
2019-05-21T05:33:06.538Z,19.37
2019-05-21T05:38:13.651Z,20.62
2019-05-21T05:43:21.142Z,23.16
2019-05-21T05:48:28.646Z,25.30
2019-05-21T05:53:36.225Z,30.41
2019-05-21T05:58:43.622Z,34.42
2019-05-21T06:03:51.202Z,32.45
2019-05-21T06:08:58.582Z,26.10
2019-05-21T06:14:06.043Z,23.60
2019-05-21T06:19:13.415Z,22.25
2019-05-21T06:24:21.172Z,22.32
2019-05-21T06:29:28.499Z,20.04
2019-05-21T06:34:36.101Z,16.27
2019-05-21T06:39:43.786Z,14.36
2019-05-21T06:44:51.270Z,15.71
2019-05-21T06:49:59.067Z,17.54
2019-05-21T06:55:06.307Z,16.91
2019-05-21T07:00:13.909Z,14.59
2019-05-21T07:05:21.390Z,16.82
2019-05-21T07:10:29.006Z,15.49
2019-05-21T07:15:36.602Z,16.47
2019-05-21T07:20:44.276Z,20.47
2019-05-21T07:25:51.948Z,21.11
2019-05-21T07:30:59.369Z,24.87
2019-05-21T07:36:06.933Z,25.83
2019-05-21T07:41:14.624Z,26.53
2019-05-21T07:46:22.066Z,20.76
2019-05-21T07:51:29.758Z,21.83
2019-05-21T07:56:37.345Z,22.53
2019-05-21T08:01:44.993Z,23.66
2019-05-21T08:06:52.464Z,23.35
2019-05-21T08:12:00.115Z,23.97
2019-05-21T08:17:07.417Z,24.31
2019-05-21T08:22:20.216Z,16.68
2019-05-21T08:27:17.414Z,15.59
2019-05-21T08:32:25.117Z,14.21
2019-05-21T08:37:32.903Z,13.15
2019-05-21T08:42:40.477Z,12.88
2019-05-21T08:47:48.157Z,9.93
2019-05-21T08:52:55.867Z,7.37
2019-05-21T08:58:07.380Z,7.06
2019-05-21T09:03:11.302Z,7.66
2019-05-21T09:08:19.013Z,9.43
2019-05-21T09:13:26.514Z,8.80
2019-05-21T09:18:34.016Z,7.76
2019-05-21T09:23:41.828Z,7.23
2019-05-21T09:28:49.567Z,7.97
2019-05-21T09:33:57.194Z,7.52
2019-05-21T09:39:04.893Z,7.80
2019-05-21T09:44:12.482Z,8.97
2019-05-21T09:49:20.002Z,8.39
2019-05-21T09:54:27.713Z,7.42
2019-05-21T09:59:35.251Z,6.72
2019-05-21T10:04:42.853Z,6.67
2019-05-21T10:09:50.474Z,6.54
2019-05-21T10:14:58.120Z,6.52
2019-05-21T10:20:05.705Z,6.68
2019-05-21T10:25:15.808Z,6.52
2019-05-21T10:30:20.725Z,6.48
2019-05-21T10:35:28.141Z,6.13
2019-05-21T10:40:35.730Z,6.40
2019-05-21T10:45:43.248Z,6.69
2019-05-21T10:50:50.879Z,7.30
2019-05-21T10:55:58.425Z,7.17
2019-05-21T11:01:05.969Z,8.13
2019-05-21T11:06:13.542Z,9.54
2019-05-21T11:11:21.353Z,9.09
2019-05-21T11:16:28.579Z,8.77
2019-05-21T11:21:36.164Z,10.25
2019-05-21T11:26:43.717Z,9.25
2019-05-21T11:31:56.922Z,10.29
2019-05-21T11:36:57.976Z,9.31
2019-05-21T11:42:05.486Z,8.86
2019-05-21T11:47:12.990Z,8.96
2019-05-21T11:52:20.586Z,9.94
2019-05-21T11:57:28.063Z,9.96
2019-05-21T12:02:35.555Z,10.28
2019-05-21T12:07:42.996Z,10.07
2019-05-21T12:12:50.626Z,10.03
2019-05-21T12:17:58.178Z,10.09
2019-05-21T12:23:05.672Z,11.04
2019-05-21T12:28:13.251Z,10.36
2019-05-21T12:33:20.846Z,10.51
2019-05-21T12:38:28.230Z,10.22
2019-05-21T12:43:35.839Z,10.68
2019-05-21T12:48:43.460Z,11.59
2019-05-21T12:53:51.358Z,11.01
2019-05-21T12:59:00.916Z,11.99
2019-05-21T13:04:11.062Z,12.57
2019-05-21T13:09:08.732Z,11.72
2019-05-21T13:14:18.650Z,12.66
2019-05-21T13:19:23.631Z,12.19
2019-05-21T13:24:31.151Z,12.52
2019-05-21T13:29:38.895Z,11.99
2019-05-21T13:34:46.128Z,12.33
2019-05-21T13:39:53.727Z,13.24
2019-05-21T13:45:01.209Z,12.87
2019-05-21T13:50:08.700Z,12.55
2019-05-21T13:55:16.298Z,11.13
2019-05-21T14:00:24.017Z,11.80
2019-05-21T14:05:31.651Z,11.99
2019-05-21T14:10:39.906Z,11.89
2019-05-21T14:15:47.071Z,12.65
2019-05-21T14:20:54.248Z,12.66
2019-05-21T14:26:01.450Z,13.11
2019-05-21T14:31:08.617Z,14.25
2019-05-21T14:36:15.803Z,12.89
2019-05-21T14:41:22.977Z,12.76
2019-05-21T14:46:30.481Z,13.83
2019-05-21T14:51:37.755Z,15.93
2019-05-21T14:56:47.616Z,16.23
2019-05-21T15:01:51.694Z,15.60
2019-05-21T15:06:58.896Z,15.69
2019-05-21T15:12:06.064Z,15.44
2019-05-21T15:17:13.219Z,15.50
2019-05-21T15:22:20.450Z,14.86
2019-05-21T15:27:27.757Z,15.53
2019-05-21T15:32:34.881Z,16.60
2019-05-21T15:37:44.971Z,16.69
2019-05-21T15:42:52.710Z,15.70
2019-05-21T15:47:55.462Z,16.37
2019-05-21T15:53:02.684Z,16.31
2019-05-21T15:58:09.975Z,16.42
2019-05-21T16:03:17.083Z,15.33
2019-05-21T16:08:25.264Z,15.23
2019-05-21T16:13:32.494Z,15.02
2019-05-21T16:18:40.277Z,14.53
2019-05-21T16:23:47.379Z,14.53
2019-05-21T16:28:55.792Z,14.77
2019-05-21T16:34:03.967Z,15.43
2019-05-21T16:39:12.330Z,14.72
2019-05-21T16:44:20.722Z,14.49
2019-05-21T16:49:28.098Z,14.52
2019-05-21T16:54:35.281Z,15.94
2019-05-21T16:59:42.441Z,17.34
2019-05-21T17:04:49.604Z,16.90
2019-05-21T17:09:56.713Z,15.59
2019-05-21T17:15:04.478Z,15.32
2019-05-21T17:20:11.928Z,15.26
2019-05-21T17:25:19.211Z,14.36
2019-05-21T17:30:26.387Z,14.62
2019-05-21T17:35:33.592Z,14.70
2019-05-21T17:40:40.749Z,14.07
2019-05-21T17:45:47.891Z,13.45
2019-05-21T17:50:55.073Z,12.36
2019-05-21T17:56:02.191Z,12.02
2019-05-21T18:01:11.885Z,11.83
2019-05-21T18:06:19.287Z,11.56
2019-05-21T18:11:26.661Z,11.12
2019-05-21T18:16:36.332Z,11.13
2019-05-21T18:21:43.690Z,12.16
2019-05-21T18:26:52.030Z,12.44
2019-05-21T18:31:59.503Z,13.96
2019-05-21T18:37:07.914Z,13.27
2019-05-21T18:42:22.362Z,12.65
2019-05-21T18:47:22.257Z,13.24
2019-05-21T18:52:29.563Z,13.55
2019-05-21T18:57:36.802Z,13.41
2019-05-21T19:02:44.127Z,13.41
2019-05-21T19:07:51.753Z,13.00
2019-05-21T19:13:01.100Z,13.19
2019-05-21T19:18:05.855Z,13.22
2019-05-21T19:23:13.183Z,13.14
2019-05-21T19:28:20.638Z,12.81
2019-05-21T19:33:27.957Z,12.92
2019-05-21T19:38:37.294Z,13.07
2019-05-21T19:43:43.270Z,12.98
2019-05-21T19:48:50.493Z,12.77
2019-05-21T19:53:57.594Z,13.33
2019-05-21T19:59:04.711Z,13.68
2019-05-21T20:04:13.235Z,13.31
2019-05-21T20:09:21.513Z,14.81
2019-05-21T20:14:29.841Z,14.31
2019-05-21T20:19:38.522Z,14.51
2019-05-21T20:24:47.166Z,13.52
2019-05-21T20:29:54.336Z,14.14
2019-05-21T20:35:01.450Z,13.43
2019-05-21T20:40:08.644Z,13.65
2019-05-21T20:45:15.811Z,12.15
2019-05-21T20:50:22.965Z,11.98
2019-05-21T20:55:30.157Z,11.64
2019-05-21T21:00:37.403Z,11.40
2019-05-21T21:05:44.515Z,10.88
2019-05-21T21:10:51.636Z,10.85
2019-05-21T21:15:58.838Z,11.38
2019-05-21T21:21:06.032Z,11.72
2019-05-21T21:26:13.159Z,11.37
2019-05-21T21:31:20.312Z,11.04
2019-05-21T21:36:27.466Z,10.89
2019-05-21T21:41:34.640Z,10.73
2019-05-21T21:46:41.730Z,11.03
2019-05-21T21:51:48.868Z,10.77
2019-05-21T21:56:56.004Z,10.01
2019-05-21T22:02:03.145Z,10.52
2019-05-21T22:07:10.271Z,10.25
2019-05-21T22:12:17.395Z,9.87
2019-05-21T22:17:24.503Z,11.05
2019-05-21T22:22:31.696Z,10.76
2019-05-21T22:27:38.850Z,11.28
2019-05-21T22:32:45.969Z,11.26
2019-05-21T22:37:53.142Z,12.07
2019-05-21T22:43:00.345Z,13.59
2019-05-21T22:48:07.688Z,15.65
2019-05-21T22:53:14.916Z,16.00
2019-05-21T22:58:22.056Z,15.24
2019-05-21T23:03:29.148Z,14.74
2019-05-21T23:08:36.348Z,15.50
2019-05-21T23:13:43.477Z,15.32
2019-05-21T23:18:50.669Z,15.32
2019-05-21T23:23:57.807Z,16.51
2019-05-21T23:29:04.901Z,15.34
2019-05-21T23:34:11.993Z,15.54
2019-05-21T23:39:19.112Z,18.13
2019-05-21T23:44:26.305Z,18.44
2019-05-21T23:49:33.433Z,17.67
2019-05-21T23:54:40.658Z,17.01
2019-05-21T23:59:47.784Z,17.55
